sensor_id;sensor_type;location;lat;lon;timestamp;P1;durP1;ratioP1;P2;durP2;ratioP2
17449;SDS011;8842;51.244;7.102;2023-04-03T00:04:24;9.43;;;8.93;;
17449;SDS011;8842;51.244;7.102;2023-04-03T00:09:28;9.40;;;8.90;;
17449;SDS011;8842;51.244;7.102;2023-04-03T00:14:32;9.50;;;9.00;;
17449;SDS011;8842;51.244;7.102;2023-04-03T00:19:36;9.60;;;9.10;;
17449;SDS011;8842;51.244;7.102;2023-04-03T00:24:41;9.73;;;9.23;;
17449;SDS011;8842;51.244;7.102;2023-04-03T00:29:58;9.87;;;9.37;;
17449;SDS011;8842;51.244;7.102;2023-04-03T00:35:02;9.80;;;9.20;;
17449;SDS011;8842;51.244;7.102;2023-04-03T00:40:08;9.70;;;9.20;;
17449;SDS011;8842;51.244;7.102;2023-04-03T00:45:26;9.90;;;9.40;;
17449;SDS011;8842;51.244;7.102;2023-04-03T00:50:36;9.30;;;8.80;;
17449;SDS011;8842;51.244;7.102;2023-04-03T00:55:43;9.40;;;8.90;;
17449;SDS011;8842;51.244;7.102;2023-04-03T01:00:50;9.27;;;8.77;;
17449;SDS011;8842;51.244;7.102;2023-04-03T01:05:58;9.30;;;8.80;;
17449;SDS011;8842;51.244;7.102;2023-04-03T01:16:14;10.30;;;9.60;;
17449;SDS011;8842;51.244;7.102;2023-04-03T01:21:39;9.90;;;9.40;;
17449;SDS011;8842;51.244;7.102;2023-04-03T01:26:58;9.53;;;9.03;;
17449;SDS011;8842;51.244;7.102;2023-04-03T01:32:10;9.40;;;8.90;;
17449;SDS011;8842;51.244;7.102;2023-04-03T01:37:14;9.43;;;8.93;;
17449;SDS011;8842;51.244;7.102;2023-04-03T01:42:18;9.47;;;8.97;;
17449;SDS011;8842;51.244;7.102;2023-04-03T01:47:30;9.50;;;9.00;;
17449;SDS011;8842;51.244;7.102;2023-04-03T01:52:34;9.00;;;8.60;;
17449;SDS011;8842;51.244;7.102;2023-04-03T01:57:38;10.23;;;9.50;;
17449;SDS011;8842;51.244;7.102;2023-04-03T02:02:42;9.20;;;8.70;;
17449;SDS011;8842;51.244;7.102;2023-04-03T02:07:47;9.13;;;8.63;;
17449;SDS011;8842;51.244;7.102;2023-04-03T02:13:00;9.47;;;8.90;;
17449;SDS011;8842;51.244;7.102;2023-04-03T02:18:04;8.80;;;8.40;;
17449;SDS011;8842;51.244;7.102;2023-04-03T02:23:16;9.47;;;8.97;;
17449;SDS011;8842;51.244;7.102;2023-04-03T02:28:28;9.60;;;9.10;;
17449;SDS011;8842;51.244;7.102;2023-04-03T02:38:43;9.30;;;8.80;;
17449;SDS011;8842;51.244;7.102;2023-04-03T02:43:48;9.47;;;8.97;;
17449;SDS011;8842;51.244;7.102;2023-04-03T02:48:52;8.93;;;8.53;;
17449;SDS011;8842;51.244;7.102;2023-04-03T02:54:04;9.87;;;9.37;;
17449;SDS011;8842;51.244;7.102;2023-04-03T02:59:08;10.10;;;9.60;;
17449;SDS011;8842;51.244;7.102;2023-04-03T03:04:20;10.90;;;10.30;;
17449;SDS011;8842;51.244;7.102;2023-04-03T03:09:24;10.93;;;10.23;;
17449;SDS011;8842;51.244;7.102;2023-04-03T03:14:38;9.80;;;9.30;;
17449;SDS011;8842;51.244;7.102;2023-04-03T03:19:43;10.37;;;9.87;;
17449;SDS011;8842;51.244;7.102;2023-04-03T03:24:55;11.00;;;10.00;;
17449;SDS011;8842;51.244;7.102;2023-04-03T03:29:59;10.37;;;9.87;;
17449;SDS011;8842;51.244;7.102;2023-04-03T03:35:10;10.80;;;10.20;;
17449;SDS011;8842;51.244;7.102;2023-04-03T03:40:15;11.03;;;10.40;;
17449;SDS011;8842;51.244;7.102;2023-04-03T03:45:26;11.03;;;10.43;;
17449;SDS011;8842;51.244;7.102;2023-04-03T03:50:30;11.47;;;10.67;;
17449;SDS011;8842;51.244;7.102;2023-04-03T03:55:35;10.97;;;10.37;;
17449;SDS011;8842;51.244;7.102;2023-04-03T04:00:39;11.37;;;10.77;;
17449;SDS011;8842;51.244;7.102;2023-04-03T04:05:43;11.27;;;10.57;;
17449;SDS011;8842;51.244;7.102;2023-04-03T04:15:58;11.83;;;11.13;;
17449;SDS011;8842;51.244;7.102;2023-04-03T04:21:02;11.90;;;11.20;;
17449;SDS011;8842;51.244;7.102;2023-04-03T04:26:14;11.07;;;10.43;;
17449;SDS011;8842;51.244;7.102;2023-04-03T04:31:18;11.30;;;10.70;;
17449;SDS011;8842;51.244;7.102;2023-04-03T04:36:30;11.20;;;10.60;;
17449;SDS011;8842;51.244;7.102;2023-04-03T04:41:34;11.50;;;10.90;;
17449;SDS011;8842;51.244;7.102;2023-04-03T04:46:38;11.20;;;10.60;;
17449;SDS011;8842;51.244;7.102;2023-04-03T04:51:50;11.23;;;10.63;;
17449;SDS011;8842;51.244;7.102;2023-04-03T04:56:54;11.10;;;10.50;;
17449;SDS011;8842;51.244;7.102;2023-04-03T05:01:58;12.00;;;11.40;;
17449;SDS011;8842;51.244;7.102;2023-04-03T05:07:11;12.40;;;11.70;;
17449;SDS011;8842;51.244;7.102;2023-04-03T05:12:15;12.57;;;11.87;;
17449;SDS011;8842;51.244;7.102;2023-04-03T05:17:27;13.23;;;12.23;;
17449;SDS011;8842;51.244;7.102;2023-04-03T05:22:31;13.20;;;12.50;;
17449;SDS011;8842;51.244;7.102;2023-04-03T05:27:43;12.70;;;12.00;;
17449;SDS011;8842;51.244;7.102;2023-04-03T05:32:47;12.93;;;12.23;;
17449;SDS011;8842;51.244;7.102;2023-04-03T05:37:59;12.23;;;11.53;;
17449;SDS011;8842;51.244;7.102;2023-04-03T05:43:03;12.57;;;11.87;;
17449;SDS011;8842;51.244;7.102;2023-04-03T05:48:15;12.37;;;11.67;;
17449;SDS011;8842;51.244;7.102;2023-04-03T05:53:27;12.40;;;11.70;;
17449;SDS011;8842;51.244;7.102;2023-04-03T06:03:45;13.70;;;12.90;;
17449;SDS011;8842;51.244;7.102;2023-04-03T06:08:49;12.57;;;11.87;;
17449;SDS011;8842;51.244;7.102;2023-04-03T06:14:01;12.67;;;11.97;;
17449;SDS011;8842;51.244;7.102;2023-04-03T06:19:05;12.80;;;12.10;;
17449;SDS011;8842;51.244;7.102;2023-04-03T06:24:26;12.90;;;12.20;;
17449;SDS011;8842;51.244;7.102;2023-04-03T06:34:42;13.60;;;12.40;;
17449;SDS011;8842;51.244;7.102;2023-04-03T06:44:57;13.20;;;12.50;;
17449;SDS011;8842;51.244;7.102;2023-04-03T06:50:01;13.17;;;12.37;;
17449;SDS011;8842;51.244;7.102;2023-04-03T06:55:05;14.83;;;13.17;;
17449;SDS011;8842;51.244;7.102;2023-04-03T07:00:13;12.40;;;11.70;;
17449;SDS011;8842;51.244;7.102;2023-04-03T07:05:19;13.57;;;12.77;;
17449;SDS011;8842;51.244;7.102;2023-04-03T07:10:23;12.30;;;11.50;;
17449;SDS011;8842;51.244;7.102;2023-04-03T07:15:27;11.63;;;11.03;;
17449;SDS011;8842;51.244;7.102;2023-04-03T07:20:31;12.23;;;11.27;;
17449;SDS011;8842;51.244;7.102;2023-04-03T07:30:46;12.33;;;11.63;;
17449;SDS011;8842;51.244;7.102;2023-04-03T07:35:52;13.10;;;12.40;;
17449;SDS011;8842;51.244;7.102;2023-04-03T07:41:04;13.67;;;12.77;;
17449;SDS011;8842;51.244;7.102;2023-04-03T07:46:09;17.43;;;12.50;;
17449;SDS011;8842;51.244;7.102;2023-04-03T07:51:13;12.80;;;12.10;;
17449;SDS011;8842;51.244;7.102;2023-04-03T07:56:25;12.83;;;12.13;;
17449;SDS011;8842;51.244;7.102;2023-04-03T08:01:29;12.93;;;12.23;;
17449;SDS011;8842;51.244;7.102;2023-04-03T08:06:41;13.50;;;12.80;;
17449;SDS011;8842;51.244;7.102;2023-04-03T08:11:45;13.70;;;12.70;;
17449;SDS011;8842;51.244;7.102;2023-04-03T08:16:49;14.47;;;13.10;;
17449;SDS011;8842;51.244;7.102;2023-04-03T08:21:54;13.30;;;12.60;;
17449;SDS011;8842;51.244;7.102;2023-04-03T08:26:59;13.53;;;12.83;;
17449;SDS011;8842;51.244;7.102;2023-04-03T08:32:04;13.10;;;12.40;;
17449;SDS011;8842;51.244;7.102;2023-04-03T08:37:09;13.60;;;12.77;;
17449;SDS011;8842;51.244;7.102;2023-04-03T08:42:24;14.20;;;13.20;;
17449;SDS011;8842;51.244;7.102;2023-04-03T08:47:35;13.33;;;12.63;;
17449;SDS011;8842;51.244;7.102;2023-04-03T08:52:42;13.10;;;12.40;;
17449;SDS011;8842;51.244;7.102;2023-04-03T08:57:58;12.40;;;11.70;;
17449;SDS011;8842;51.244;7.102;2023-04-03T09:03:04;15.60;;;12.73;;
17449;SDS011;8842;51.244;7.102;2023-04-03T09:08:21;13.20;;;12.50;;
17449;SDS011;8842;51.244;7.102;2023-04-03T09:13:30;13.30;;;12.60;;
17449;SDS011;8842;51.244;7.102;2023-04-03T09:18:43;12.10;;;11.40;;
17449;SDS011;8842;51.244;7.102;2023-04-03T09:23:50;12.90;;;12.20;;
17449;SDS011;8842;51.244;7.102;2023-04-03T09:29:05;13.03;;;12.33;;
17449;SDS011;8842;51.244;7.102;2023-04-03T09:34:13;13.57;;;12.87;;
17449;SDS011;8842;51.244;7.102;2023-04-03T09:39:26;13.50;;;12.70;;
17449;SDS011;8842;51.244;7.102;2023-04-03T09:44:31;13.47;;;12.77;;
17449;SDS011;8842;51.244;7.102;2023-04-03T09:49:37;13.57;;;12.87;;
17449;SDS011;8842;51.244;7.102;2023-04-03T09:54:49;13.53;;;12.83;;
17449;SDS011;8842;51.244;7.102;2023-04-03T10:00:05;13.17;;;12.47;;
17449;SDS011;8842;51.244;7.102;2023-04-03T10:10:37;13.23;;;12.53;;
17449;SDS011;8842;51.244;7.102;2023-04-03T10:15:43;12.77;;;12.07;;
17449;SDS011;8842;51.244;7.102;2023-04-03T10:20:55;13.37;;;12.57;;
17449;SDS011;8842;51.244;7.102;2023-04-03T10:26:08;13.60;;;12.70;;
17449;SDS011;8842;51.244;7.102;2023-04-03T10:31:24;12.60;;;11.90;;
17449;SDS011;8842;51.244;7.102;2023-04-03T10:36:35;12.70;;;12.00;;
17449;SDS011;8842;51.244;7.102;2023-04-03T10:41:52;11.80;;;11.10;;
17449;SDS011;8842;51.244;7.102;2023-04-03T10:47:02;10.90;;;10.30;;
17449;SDS011;8842;51.244;7.102;2023-04-03T10:52:19;11.83;;;11.17;;
17449;SDS011;8842;51.244;7.102;2023-04-03T11:02:37;14.17;;;12.57;;
17449;SDS011;8842;51.244;7.102;2023-04-03T11:07:46;13.40;;;12.70;;
17449;SDS011;8842;51.244;7.102;2023-04-03T11:13:01;12.00;;;11.33;;
17449;SDS011;8842;51.244;7.102;2023-04-03T11:18:08;13.83;;;12.93;;
17449;SDS011;8842;51.244;7.102;2023-04-03T11:23:16;13.53;;;12.73;;
17449;SDS011;8842;51.244;7.102;2023-04-03T11:28:29;13.23;;;12.53;;
17449;SDS011;8842;51.244;7.102;2023-04-03T11:33:40;12.93;;;12.23;;
17449;SDS011;8842;51.244;7.102;2023-04-03T11:38:57;13.50;;;12.80;;
17449;SDS011;8842;51.244;7.102;2023-04-03T11:44:04;13.70;;;13.00;;
17449;SDS011;8842;51.244;7.102;2023-04-03T11:55:02;12.40;;;11.80;;
17449;SDS011;8842;51.244;7.102;2023-04-03T12:11:54;13.00;;;12.20;;
17449;SDS011;8842;51.244;7.102;2023-04-03T12:17:00;13.00;;;12.30;;
17449;SDS011;8842;51.244;7.102;2023-04-03T12:22:15;12.80;;;12.10;;
17449;SDS011;8842;51.244;7.102;2023-04-03T12:27:33;13.50;;;12.80;;
17449;SDS011;8842;51.244;7.102;2023-04-03T12:38:19;13.80;;;13.10;;
17449;SDS011;8842;51.244;7.102;2023-04-03T12:49:10;13.63;;;12.93;;
17449;SDS011;8842;51.244;7.102;2023-04-03T12:54:19;13.13;;;12.43;;
17449;SDS011;8842;51.244;7.102;2023-04-03T12:59:45;13.23;;;12.53;;
17449;SDS011;8842;51.244;7.102;2023-04-03T13:04:49;13.20;;;12.50;;
17449;SDS011;8842;51.244;7.102;2023-04-03T13:10:03;12.70;;;12.00;;
17449;SDS011;8842;51.244;7.102;2023-04-03T13:15:18;12.70;;;12.00;;
17449;SDS011;8842;51.244;7.102;2023-04-03T13:25:35;13.07;;;12.37;;
17449;SDS011;8842;51.244;7.102;2023-04-03T13:30:54;13.20;;;12.50;;
17449;SDS011;8842;51.244;7.102;2023-04-03T13:36:08;13.93;;;13.13;;
17449;SDS011;8842;51.244;7.102;2023-04-03T13:41:24;13.20;;;12.50;;
17449;SDS011;8842;51.244;7.102;2023-04-03T13:46:36;13.03;;;12.33;;
17449;SDS011;8842;51.244;7.102;2023-04-03T13:51:40;12.80;;;12.10;;
17449;SDS011;8842;51.244;7.102;2023-04-03T13:56:54;14.13;;;13.23;;
17449;SDS011;8842;51.244;7.102;2023-04-03T14:02:12;13.60;;;12.90;;
17449;SDS011;8842;51.244;7.102;2023-04-03T14:07:25;13.67;;;12.97;;
17449;SDS011;8842;51.244;7.102;2023-04-03T14:12:31;12.90;;;12.20;;
17449;SDS011;8842;51.244;7.102;2023-04-03T14:17:44;13.27;;;12.10;;
17449;SDS011;8842;51.244;7.102;2023-04-03T14:22:48;12.90;;;12.20;;
17449;SDS011;8842;51.244;7.102;2023-04-03T14:28:00;14.20;;;13.33;;
17449;SDS011;8842;51.244;7.102;2023-04-03T14:33:06;12.83;;;12.13;;
17449;SDS011;8842;51.244;7.102;2023-04-03T14:38:23;13.30;;;12.60;;
17449;SDS011;8842;51.244;7.102;2023-04-03T14:43:29;12.57;;;11.87;;
17449;SDS011;8842;51.244;7.102;2023-04-03T14:48:34;12.70;;;12.00;;
17449;SDS011;8842;51.244;7.102;2023-04-03T14:53:38;12.00;;;11.40;;
17449;SDS011;8842;51.244;7.102;2023-04-03T14:58:43;11.77;;;11.17;;
17449;SDS011;8842;51.244;7.102;2023-04-03T15:03:55;12.17;;;11.57;;
17449;SDS011;8842;51.244;7.102;2023-04-03T15:09:00;12.30;;;11.70;;
17449;SDS011;8842;51.244;7.102;2023-04-03T15:14:11;12.93;;;12.13;;
17449;SDS011;8842;51.244;7.102;2023-04-03T15:19:17;12.43;;;11.83;;
17449;SDS011;8842;51.244;7.102;2023-04-03T15:24:29;12.80;;;12.10;;
17449;SDS011;8842;51.244;7.102;2023-04-03T15:29:33;12.80;;;12.10;;
17449;SDS011;8842;51.244;7.102;2023-04-03T15:34:37;13.20;;;12.50;;
17449;SDS011;8842;51.244;7.102;2023-04-03T15:39:49;12.60;;;11.90;;
17449;SDS011;8842;51.244;7.102;2023-04-03T15:44:53;12.33;;;11.73;;
17449;SDS011;8842;51.244;7.102;2023-04-03T15:50:06;13.20;;;12.50;;
17449;SDS011;8842;51.244;7.102;2023-04-03T15:55:11;12.20;;;11.60;;
17449;SDS011;8842;51.244;7.102;2023-04-03T16:00:15;12.67;;;11.97;;
17449;SDS011;8842;51.244;7.102;2023-04-03T16:05:27;12.50;;;11.80;;
17449;SDS011;8842;51.244;7.102;2023-04-03T16:10:32;12.00;;;11.40;;
17449;SDS011;8842;51.244;7.102;2023-04-03T16:15:36;11.40;;;10.80;;
17449;SDS011;8842;51.244;7.102;2023-04-03T16:20:48;13.43;;;12.60;;
17449;SDS011;8842;51.244;7.102;2023-04-03T16:26:00;12.83;;;12.13;;
17449;SDS011;8842;51.244;7.102;2023-04-03T16:31:04;12.00;;;11.40;;
17449;SDS011;8842;51.244;7.102;2023-04-03T16:36:19;12.60;;;11.90;;
17449;SDS011;8842;51.244;7.102;2023-04-03T16:41:23;13.00;;;12.30;;
17449;SDS011;8842;51.244;7.102;2023-04-03T16:46:27;12.37;;;11.70;;
17449;SDS011;8842;51.244;7.102;2023-04-03T16:56:42;12.50;;;11.80;;
17449;SDS011;8842;51.244;7.102;2023-04-03T17:01:46;12.63;;;11.93;;
17449;SDS011;8842;51.244;7.102;2023-04-03T17:06:57;10.47;;;9.97;;
17449;SDS011;8842;51.244;7.102;2023-04-03T17:12:05;11.50;;;10.90;;
17449;SDS011;8842;51.244;7.102;2023-04-03T17:17:20;10.20;;;9.70;;
17449;SDS011;8842;51.244;7.102;2023-04-03T17:22:25;12.07;;;11.17;;
17449;SDS011;8842;51.244;7.102;2023-04-03T17:27:37;11.73;;;11.13;;
17449;SDS011;8842;51.244;7.102;2023-04-03T17:32:42;11.80;;;11.20;;
17449;SDS011;8842;51.244;7.102;2023-04-03T17:37:47;12.00;;;11.40;;
17449;SDS011;8842;51.244;7.102;2023-04-03T17:42:59;12.70;;;12.00;;
17449;SDS011;8842;51.244;7.102;2023-04-03T17:48:03;11.53;;;10.93;;
17449;SDS011;8842;51.244;7.102;2023-04-03T17:58:18;12.60;;;12.00;;
17449;SDS011;8842;51.244;7.102;2023-04-03T18:03:30;12.00;;;11.40;;
17449;SDS011;8842;51.244;7.102;2023-04-03T18:08:34;11.73;;;11.13;;
17449;SDS011;8842;51.244;7.102;2023-04-03T18:13:40;13.23;;;12.37;;
17449;SDS011;8842;51.244;7.102;2023-04-03T18:18:45;11.80;;;11.20;;
17449;SDS011;8842;51.244;7.102;2023-04-03T18:23:50;12.53;;;11.83;;
17449;SDS011;8842;51.244;7.102;2023-04-03T18:29:03;12.80;;;12.10;;
17449;SDS011;8842;51.244;7.102;2023-04-03T18:34:10;13.00;;;12.20;;
17449;SDS011;8842;51.244;7.102;2023-04-03T18:39:14;12.70;;;12.00;;
17449;SDS011;8842;51.244;7.102;2023-04-03T18:44:19;12.53;;;11.87;;
17449;SDS011;8842;51.244;7.102;2023-04-03T18:49:32;12.30;;;11.70;;
17449;SDS011;8842;51.244;7.102;2023-04-03T18:54:38;12.90;;;12.20;;
17449;SDS011;8842;51.244;7.102;2023-04-03T18:59:50;13.17;;;12.47;;
17449;SDS011;8842;51.244;7.102;2023-04-03T19:04:54;13.07;;;12.37;;
17449;SDS011;8842;51.244;7.102;2023-04-03T19:10:07;13.43;;;12.63;;
17449;SDS011;8842;51.244;7.102;2023-04-03T19:15:15;12.80;;;12.10;;
17449;SDS011;8842;51.244;7.102;2023-04-03T19:20:28;12.70;;;12.00;;
17449;SDS011;8842;51.244;7.102;2023-04-03T19:30:43;12.30;;;11.70;;
17449;SDS011;8842;51.244;7.102;2023-04-03T19:35:49;12.07;;;11.47;;
17449;SDS011;8842;51.244;7.102;2023-04-03T19:40:53;12.40;;;11.80;;
17449;SDS011;8842;51.244;7.102;2023-04-03T19:46:07;12.40;;;11.80;;
17449;SDS011;8842;51.244;7.102;2023-04-03T19:51:12;12.67;;;11.97;;
17449;SDS011;8842;51.244;7.102;2023-04-03T19:56:16;12.93;;;12.23;;
17449;SDS011;8842;51.244;7.102;2023-04-03T20:01:27;12.40;;;11.80;;
17449;SDS011;8842;51.244;7.102;2023-04-03T20:06:32;12.10;;;11.50;;
17449;SDS011;8842;51.244;7.102;2023-04-03T20:11:36;12.60;;;11.80;;
17449;SDS011;8842;51.244;7.102;2023-04-03T20:16:42;11.00;;;10.40;;
17449;SDS011;8842;51.244;7.102;2023-04-03T20:21:47;12.70;;;12.00;;
17449;SDS011;8842;51.244;7.102;2023-04-03T20:26:51;12.30;;;11.60;;
17449;SDS011;8842;51.244;7.102;2023-04-03T20:31:56;12.70;;;12.00;;
17449;SDS011;8842;51.244;7.102;2023-04-03T20:37:00;12.20;;;11.60;;
17449;SDS011;8842;51.244;7.102;2023-04-03T20:42:04;13.00;;;12.30;;
17449;SDS011;8842;51.244;7.102;2023-04-03T20:47:16;12.00;;;11.40;;
17449;SDS011;8842;51.244;7.102;2023-04-03T20:52:20;12.07;;;11.47;;
17449;SDS011;8842;51.244;7.102;2023-04-03T20:57:24;11.97;;;11.37;;
17449;SDS011;8842;51.244;7.102;2023-04-03T21:02:30;12.00;;;11.40;;
17449;SDS011;8842;51.244;7.102;2023-04-03T21:24:11;12.10;;;11.50;;
17449;SDS011;8842;51.244;7.102;2023-04-03T21:29:16;12.60;;;11.90;;
17449;SDS011;8842;51.244;7.102;2023-04-03T21:34:19;11.90;;;11.30;;
17449;SDS011;8842;51.244;7.102;2023-04-03T21:39:27;12.10;;;11.50;;
17449;SDS011;8842;51.244;7.102;2023-04-03T21:44:31;11.87;;;11.27;;
17449;SDS011;8842;51.244;7.102;2023-04-03T21:49:35;11.70;;;11.10;;
17449;SDS011;8842;51.244;7.102;2023-04-03T21:54:39;12.33;;;11.63;;
17449;SDS011;8842;51.244;7.102;2023-04-03T21:59:43;11.93;;;11.33;;
17449;SDS011;8842;51.244;7.102;2023-04-03T22:04:55;11.80;;;11.20;;
17449;SDS011;8842;51.244;7.102;2023-04-03T22:09:59;12.00;;;11.40;;
17449;SDS011;8842;51.244;7.102;2023-04-03T22:15:05;11.83;;;11.23;;
17449;SDS011;8842;51.244;7.102;2023-04-03T22:20:18;11.80;;;11.20;;
17449;SDS011;8842;51.244;7.102;2023-04-03T22:25:22;11.83;;;11.23;;
17449;SDS011;8842;51.244;7.102;2023-04-03T22:35:44;11.70;;;11.10;;
17449;SDS011;8842;51.244;7.102;2023-04-03T22:40:55;11.53;;;10.93;;
17449;SDS011;8842;51.244;7.102;2023-04-03T22:46:07;11.43;;;10.83;;
17449;SDS011;8842;51.244;7.102;2023-04-03T22:51:12;11.70;;;11.10;;
17449;SDS011;8842;51.244;7.102;2023-04-03T22:56:16;11.70;;;11.10;;
17449;SDS011;8842;51.244;7.102;2023-04-03T23:06:31;11.50;;;10.90;;
17449;SDS011;8842;51.244;7.102;2023-04-03T23:16:46;11.80;;;11.20;;
17449;SDS011;8842;51.244;7.102;2023-04-03T23:21:50;11.97;;;11.33;;
17449;SDS011;8842;51.244;7.102;2023-04-03T23:27:02;12.07;;;11.47;;
17449;SDS011;8842;51.244;7.102;2023-04-03T23:32:06;12.50;;;11.80;;
17449;SDS011;8842;51.244;7.102;2023-04-03T23:37:18;12.20;;;11.60;;
17449;SDS011;8842;51.244;7.102;2023-04-03T23:47:35;11.83;;;11.23;;
17449;SDS011;8842;51.244;7.102;2023-04-03T23:52:39;11.67;;;11.07;;
17449;SDS011;8842;51.244;7.102;2023-04-03T23:57:51;11.70;;;11.10;;
